sensor_id;sensor_type;location;lat;lon;timestamp;temperature;humidity
12841;DHT22;6487;48.626;12.486;2023-12-29T00:00:11;7.80;99.90
12841;DHT22;6487;48.626;12.486;2023-12-29T00:02:41;7.80;99.90
12841;DHT22;6487;48.626;12.486;2023-12-29T00:05:09;7.80;99.90
12841;DHT22;6487;48.626;12.486;2023-12-29T00:07:37;7.70;99.90
12841;DHT22;6487;48.626;12.486;2023-12-29T00:10:08;7.70;99.90
12841;DHT22;6487;48.626;12.486;2023-12-29T00:12:36;7.70;99.90
12841;DHT22;6487;48.626;12.486;2023-12-29T00:15:06;7.70;99.90
12841;DHT22;6487;48.626;12.486;2023-12-29T00:17:34;7.70;99.90
12841;DHT22;6487;48.626;12.486;2023-12-29T00:20:05;7.60;99.90
12841;DHT22;6487;48.626;12.486;2023-12-29T00:22:35;7.70;99.90
12841;DHT22;6487;48.626;12.486;2023-12-29T00:25:04;7.60;99.90
12841;DHT22;6487;48.626;12.486;2023-12-29T00:27:37;7.60;99.90
12841;DHT22;6487;48.626;12.486;2023-12-29T00:30:06;7.60;99.90
12841;DHT22;6487;48.626;12.486;2023-12-29T00:32:36;7.60;99.90
12841;DHT22;6487;48.626;12.486;2023-12-29T00:35:05;7.50;99.90
12841;DHT22;6487;48.626;12.486;2023-12-29T00:37:33;7.50;99.90
12841;DHT22;6487;48.626;12.486;2023-12-29T00:40:02;7.50;99.90
12841;DHT22;6487;48.626;12.486;2023-12-29T00:42:32;7.50;99.90
12841;DHT22;6487;48.626;12.486;2023-12-29T00:45:02;7.40;99.90
12841;DHT22;6487;48.626;12.486;2023-12-29T00:47:31;7.40;99.90
12841;DHT22;6487;48.626;12.486;2023-12-29T00:50:00;7.40;99.90
12841;DHT22;6487;48.626;12.486;2023-12-29T00:52:29;7.40;99.90
12841;DHT22;6487;48.626;12.486;2023-12-29T00:54:57;7.40;99.90
12841;DHT22;6487;48.626;12.486;2023-12-29T00:57:26;7.30;99.90
12841;DHT22;6487;48.626;12.486;2023-12-29T00:59:54;7.30;99.90
12841;DHT22;6487;48.626;12.486;2023-12-29T01:02:24;7.20;99.90
12841;DHT22;6487;48.626;12.486;2023-12-29T01:04:52;7.20;99.90
12841;DHT22;6487;48.626;12.486;2023-12-29T01:07:21;7.20;99.90
12841;DHT22;6487;48.626;12.486;2023-12-29T01:09:49;7.20;99.90
12841;DHT22;6487;48.626;12.486;2023-12-29T01:12:18;7.20;99.90
12841;DHT22;6487;48.626;12.486;2023-12-29T01:14:46;7.20;99.90
12841;DHT22;6487;48.626;12.486;2023-12-29T01:17:15;7.20;99.90
12841;DHT22;6487;48.626;12.486;2023-12-29T01:19:45;7.20;99.90
12841;DHT22;6487;48.626;12.486;2023-12-29T01:22:13;7.20;99.90
12841;DHT22;6487;48.626;12.486;2023-12-29T01:24:41;7.20;99.90
12841;DHT22;6487;48.626;12.486;2023-12-29T01:27:12;7.10;99.90
12841;DHT22;6487;48.626;12.486;2023-12-29T01:29:41;7.00;99.90
12841;DHT22;6487;48.626;12.486;2023-12-29T01:32:09;7.10;99.90
12841;DHT22;6487;48.626;12.486;2023-12-29T01:34:37;7.20;99.90
12841;DHT22;6487;48.626;12.486;2023-12-29T01:37:07;7.20;99.90
12841;DHT22;6487;48.626;12.486;2023-12-29T01:39:39;7.20;99.90
12841;DHT22;6487;48.626;12.486;2023-12-29T01:42:08;7.20;99.90
12841;DHT22;6487;48.626;12.486;2023-12-29T01:44:38;7.30;99.90
12841;DHT22;6487;48.626;12.486;2023-12-29T01:47:12;7.30;99.90
12841;DHT22;6487;48.626;12.486;2023-12-29T01:49:44;7.30;99.90
12841;DHT22;6487;48.626;12.486;2023-12-29T01:52:16;7.30;99.90
12841;DHT22;6487;48.626;12.486;2023-12-29T01:54:46;7.30;99.90
12841;DHT22;6487;48.626;12.486;2023-12-29T01:57:17;7.30;99.90
12841;DHT22;6487;48.626;12.486;2023-12-29T01:59:45;7.30;99.90
12841;DHT22;6487;48.626;12.486;2023-12-29T02:02:16;7.20;99.90
12841;DHT22;6487;48.626;12.486;2023-12-29T02:04:44;7.20;99.90
12841;DHT22;6487;48.626;12.486;2023-12-29T02:07:15;7.30;99.90
12841;DHT22;6487;48.626;12.486;2023-12-29T02:09:44;7.30;99.90
12841;DHT22;6487;48.626;12.486;2023-12-29T02:12:13;7.30;99.90
12841;DHT22;6487;48.626;12.486;2023-12-29T02:14:41;7.20;99.90
12841;DHT22;6487;48.626;12.486;2023-12-29T02:17:17;7.20;99.90
12841;DHT22;6487;48.626;12.486;2023-12-29T02:19:49;7.20;99.90
12841;DHT22;6487;48.626;12.486;2023-12-29T02:22:19;7.20;99.90
12841;DHT22;6487;48.626;12.486;2023-12-29T02:24:51;7.20;99.90
12841;DHT22;6487;48.626;12.486;2023-12-29T02:27:26;7.20;99.90
12841;DHT22;6487;48.626;12.486;2023-12-29T02:30:09;7.10;99.90
12841;DHT22;6487;48.626;12.486;2023-12-29T02:32:41;7.10;99.90
12841;DHT22;6487;48.626;12.486;2023-12-29T02:35:13;7.00;99.90
12841;DHT22;6487;48.626;12.486;2023-12-29T02:37:43;7.00;99.90
12841;DHT22;6487;48.626;12.486;2023-12-29T02:40:14;6.90;99.90
12841;DHT22;6487;48.626;12.486;2023-12-29T02:42:46;7.00;99.90
12841;DHT22;6487;48.626;12.486;2023-12-29T02:45:15;6.90;99.90
12841;DHT22;6487;48.626;12.486;2023-12-29T02:47:44;7.00;99.90
12841;DHT22;6487;48.626;12.486;2023-12-29T02:50:13;6.90;99.90
12841;DHT22;6487;48.626;12.486;2023-12-29T02:52:42;6.90;99.90
12841;DHT22;6487;48.626;12.486;2023-12-29T02:55:10;6.80;99.90
12841;DHT22;6487;48.626;12.486;2023-12-29T02:57:40;6.80;99.90
12841;DHT22;6487;48.626;12.486;2023-12-29T03:00:09;6.80;99.90
12841;DHT22;6487;48.626;12.486;2023-12-29T03:02:38;6.80;99.90
12841;DHT22;6487;48.626;12.486;2023-12-29T03:05:07;6.70;99.90
12841;DHT22;6487;48.626;12.486;2023-12-29T03:07:35;6.70;99.90
12841;DHT22;6487;48.626;12.486;2023-12-29T03:10:05;6.60;99.90
12841;DHT22;6487;48.626;12.486;2023-12-29T03:12:34;6.60;99.90
12841;DHT22;6487;48.626;12.486;2023-12-29T03:15:05;6.60;99.90
12841;DHT22;6487;48.626;12.486;2023-12-29T03:17:34;6.60;99.90
12841;DHT22;6487;48.626;12.486;2023-12-29T03:20:02;6.50;99.90
12841;DHT22;6487;48.626;12.486;2023-12-29T03:22:32;6.50;99.90
12841;DHT22;6487;48.626;12.486;2023-12-29T03:25:01;6.40;99.90
12841;DHT22;6487;48.626;12.486;2023-12-29T03:27:29;6.40;99.90
12841;DHT22;6487;48.626;12.486;2023-12-29T03:29:58;6.30;99.90
12841;DHT22;6487;48.626;12.486;2023-12-29T03:32:28;6.30;99.90
12841;DHT22;6487;48.626;12.486;2023-12-29T03:34:56;6.30;99.90
12841;DHT22;6487;48.626;12.486;2023-12-29T03:37:25;6.30;99.90
12841;DHT22;6487;48.626;12.486;2023-12-29T03:39:54;6.20;99.90
12841;DHT22;6487;48.626;12.486;2023-12-29T03:42:22;6.20;99.90
12841;DHT22;6487;48.626;12.486;2023-12-29T03:44:50;6.20;99.90
12841;DHT22;6487;48.626;12.486;2023-12-29T03:47:19;6.20;99.90
12841;DHT22;6487;48.626;12.486;2023-12-29T03:49:49;6.20;99.90
12841;DHT22;6487;48.626;12.486;2023-12-29T03:52:17;6.30;99.90
12841;DHT22;6487;48.626;12.486;2023-12-29T03:54:46;6.30;99.90
12841;DHT22;6487;48.626;12.486;2023-12-29T03:57:14;6.40;99.90
12841;DHT22;6487;48.626;12.486;2023-12-29T03:59:43;6.50;99.90
12841;DHT22;6487;48.626;12.486;2023-12-29T04:02:11;6.50;99.90
12841;DHT22;6487;48.626;12.486;2023-12-29T04:04:41;6.50;99.90
12841;DHT22;6487;48.626;12.486;2023-12-29T04:07:11;6.50;99.90
12841;DHT22;6487;48.626;12.486;2023-12-29T04:09:39;6.50;99.90
12841;DHT22;6487;48.626;12.486;2023-12-29T04:12:08;6.60;99.90
12841;DHT22;6487;48.626;12.486;2023-12-29T04:14:37;6.60;99.90
12841;DHT22;6487;48.626;12.486;2023-12-29T04:17:05;6.60;99.90
12841;DHT22;6487;48.626;12.486;2023-12-29T04:19:41;6.60;99.90
12841;DHT22;6487;48.626;12.486;2023-12-29T04:22:10;6.60;99.90
12841;DHT22;6487;48.626;12.486;2023-12-29T04:24:39;6.60;99.90
12841;DHT22;6487;48.626;12.486;2023-12-29T04:27:07;6.60;99.90
12841;DHT22;6487;48.626;12.486;2023-12-29T04:29:36;6.70;99.90
12841;DHT22;6487;48.626;12.486;2023-12-29T04:32:05;6.70;99.90
12841;DHT22;6487;48.626;12.486;2023-12-29T04:34:34;6.70;99.90
12841;DHT22;6487;48.626;12.486;2023-12-29T04:37:05;6.70;99.90
12841;DHT22;6487;48.626;12.486;2023-12-29T04:39:35;6.70;99.90
12841;DHT22;6487;48.626;12.486;2023-12-29T04:42:04;6.60;99.90
12841;DHT22;6487;48.626;12.486;2023-12-29T04:44:34;6.70;99.90
12841;DHT22;6487;48.626;12.486;2023-12-29T04:47:05;6.70;99.90
12841;DHT22;6487;48.626;12.486;2023-12-29T04:49:34;6.70;99.90
12841;DHT22;6487;48.626;12.486;2023-12-29T04:52:04;6.70;99.90
12841;DHT22;6487;48.626;12.486;2023-12-29T04:54:33;6.70;99.90
12841;DHT22;6487;48.626;12.486;2023-12-29T04:57:03;6.60;99.90
12841;DHT22;6487;48.626;12.486;2023-12-29T04:59:31;6.60;99.90
12841;DHT22;6487;48.626;12.486;2023-12-29T05:02:00;6.60;99.90
12841;DHT22;6487;48.626;12.486;2023-12-29T05:04:28;6.60;99.90
12841;DHT22;6487;48.626;12.486;2023-12-29T05:06:57;6.60;99.90
12841;DHT22;6487;48.626;12.486;2023-12-29T05:09:25;6.60;99.90
12841;DHT22;6487;48.626;12.486;2023-12-29T05:11:55;6.60;99.90
12841;DHT22;6487;48.626;12.486;2023-12-29T05:14:24;6.60;99.90
12841;DHT22;6487;48.626;12.486;2023-12-29T05:16:52;6.60;99.90
12841;DHT22;6487;48.626;12.486;2023-12-29T05:19:21;6.60;99.90
12841;DHT22;6487;48.626;12.486;2023-12-29T05:21:49;6.50;99.90
12841;DHT22;6487;48.626;12.486;2023-12-29T05:24:19;6.50;99.90
12841;DHT22;6487;48.626;12.486;2023-12-29T05:26:48;6.50;99.90
12841;DHT22;6487;48.626;12.486;2023-12-29T05:29:17;6.50;99.90
12841;DHT22;6487;48.626;12.486;2023-12-29T05:31:46;6.40;99.90
12841;DHT22;6487;48.626;12.486;2023-12-29T05:34:14;6.50;99.90
12841;DHT22;6487;48.626;12.486;2023-12-29T05:36:43;6.50;99.90
12841;DHT22;6487;48.626;12.486;2023-12-29T05:39:16;6.60;99.90
12841;DHT22;6487;48.626;12.486;2023-12-29T05:41:47;6.60;99.90
12841;DHT22;6487;48.626;12.486;2023-12-29T05:44:17;6.60;99.90
12841;DHT22;6487;48.626;12.486;2023-12-29T05:46:46;6.60;99.90
12841;DHT22;6487;48.626;12.486;2023-12-29T05:49:15;6.60;99.90
12841;DHT22;6487;48.626;12.486;2023-12-29T05:51:44;6.50;99.90
12841;DHT22;6487;48.626;12.486;2023-12-29T05:54:13;6.60;99.90
12841;DHT22;6487;48.626;12.486;2023-12-29T05:56:41;6.60;99.90
12841;DHT22;6487;48.626;12.486;2023-12-29T05:59:10;6.70;99.90
12841;DHT22;6487;48.626;12.486;2023-12-29T06:01:40;6.70;99.90
12841;DHT22;6487;48.626;12.486;2023-12-29T06:04:09;6.70;99.90
12841;DHT22;6487;48.626;12.486;2023-12-29T06:06:37;6.80;99.90
12841;DHT22;6487;48.626;12.486;2023-12-29T06:09:06;6.80;99.90
12841;DHT22;6487;48.626;12.486;2023-12-29T06:11:37;6.80;99.90
12841;DHT22;6487;48.626;12.486;2023-12-29T06:14:06;6.80;99.90
12841;DHT22;6487;48.626;12.486;2023-12-29T06:16:35;6.90;99.90
12841;DHT22;6487;48.626;12.486;2023-12-29T06:19:05;6.90;99.90
12841;DHT22;6487;48.626;12.486;2023-12-29T06:21:34;7.00;99.90
12841;DHT22;6487;48.626;12.486;2023-12-29T06:24:03;6.90;99.90
12841;DHT22;6487;48.626;12.486;2023-12-29T06:26:32;7.00;99.90
12841;DHT22;6487;48.626;12.486;2023-12-29T06:29:01;7.00;99.90
12841;DHT22;6487;48.626;12.486;2023-12-29T06:31:29;7.00;99.90
12841;DHT22;6487;48.626;12.486;2023-12-29T06:33:58;7.00;99.90
12841;DHT22;6487;48.626;12.486;2023-12-29T06:36:29;7.00;99.90
12841;DHT22;6487;48.626;12.486;2023-12-29T06:39:00;7.00;99.90
12841;DHT22;6487;48.626;12.486;2023-12-29T06:41:29;7.00;99.90
12841;DHT22;6487;48.626;12.486;2023-12-29T06:43:58;7.00;99.90
12841;DHT22;6487;48.626;12.486;2023-12-29T06:46:27;7.10;99.90
12841;DHT22;6487;48.626;12.486;2023-12-29T06:48:55;7.20;99.90
12841;DHT22;6487;48.626;12.486;2023-12-29T06:51:24;7.20;99.90
12841;DHT22;6487;48.626;12.486;2023-12-29T06:53:54;7.20;99.90
12841;DHT22;6487;48.626;12.486;2023-12-29T06:56:23;7.30;99.90
12841;DHT22;6487;48.626;12.486;2023-12-29T06:58:51;7.30;99.90
12841;DHT22;6487;48.626;12.486;2023-12-29T07:01:20;7.30;99.90
12841;DHT22;6487;48.626;12.486;2023-12-29T07:03:48;7.40;99.90
12841;DHT22;6487;48.626;12.486;2023-12-29T07:06:17;7.40;99.90
12841;DHT22;6487;48.626;12.486;2023-12-29T07:08:46;7.40;99.90
12841;DHT22;6487;48.626;12.486;2023-12-29T07:11:16;7.40;99.90
12841;DHT22;6487;48.626;12.486;2023-12-29T07:13:44;7.40;99.90
12841;DHT22;6487;48.626;12.486;2023-12-29T07:16:13;7.30;99.90
12841;DHT22;6487;48.626;12.486;2023-12-29T07:18:41;7.30;99.90
12841;DHT22;6487;48.626;12.486;2023-12-29T07:21:10;7.30;99.90
12841;DHT22;6487;48.626;12.486;2023-12-29T07:23:43;7.40;99.90
12841;DHT22;6487;48.626;12.486;2023-12-29T07:26:11;7.40;99.90
12841;DHT22;6487;48.626;12.486;2023-12-29T07:28:41;7.40;99.90
12841;DHT22;6487;48.626;12.486;2023-12-29T07:31:10;7.50;99.90
12841;DHT22;6487;48.626;12.486;2023-12-29T07:33:39;7.50;99.90
12841;DHT22;6487;48.626;12.486;2023-12-29T07:36:08;7.40;99.90
12841;DHT22;6487;48.626;12.486;2023-12-29T07:38:38;7.50;99.90
12841;DHT22;6487;48.626;12.486;2023-12-29T07:41:06;7.50;99.90
12841;DHT22;6487;48.626;12.486;2023-12-29T07:43:35;7.60;99.90
12841;DHT22;6487;48.626;12.486;2023-12-29T07:46:05;7.60;99.90
12841;DHT22;6487;48.626;12.486;2023-12-29T07:48:34;7.60;99.90
12841;DHT22;6487;48.626;12.486;2023-12-29T07:51:05;7.70;99.90
12841;DHT22;6487;48.626;12.486;2023-12-29T07:53:34;7.70;99.90
12841;DHT22;6487;48.626;12.486;2023-12-29T07:56:03;7.70;99.90
12841;DHT22;6487;48.626;12.486;2023-12-29T07:58:32;7.70;99.90
12841;DHT22;6487;48.626;12.486;2023-12-29T08:01:00;7.70;99.90
12841;DHT22;6487;48.626;12.486;2023-12-29T08:03:30;7.70;99.90
12841;DHT22;6487;48.626;12.486;2023-12-29T08:05:59;7.80;99.90
12841;DHT22;6487;48.626;12.486;2023-12-29T08:08:27;7.80;99.90
12841;DHT22;6487;48.626;12.486;2023-12-29T08:10:56;7.90;99.90
12841;DHT22;6487;48.626;12.486;2023-12-29T08:13:24;8.00;99.90
12841;DHT22;6487;48.626;12.486;2023-12-29T08:15:53;8.00;99.90
12841;DHT22;6487;48.626;12.486;2023-12-29T08:18:21;8.00;99.90
12841;DHT22;6487;48.626;12.486;2023-12-29T08:20:51;8.00;99.90
12841;DHT22;6487;48.626;12.486;2023-12-29T08:23:19;8.10;99.90
12841;DHT22;6487;48.626;12.486;2023-12-29T08:25:48;8.10;99.90
12841;DHT22;6487;48.626;12.486;2023-12-29T08:28:16;8.20;99.90
12841;DHT22;6487;48.626;12.486;2023-12-29T08:30:45;8.20;99.90
12841;DHT22;6487;48.626;12.486;2023-12-29T08:33:14;8.20;99.90
12841;DHT22;6487;48.626;12.486;2023-12-29T08:35:45;8.20;99.90
12841;DHT22;6487;48.626;12.486;2023-12-29T08:38:18;8.30;99.90
12841;DHT22;6487;48.626;12.486;2023-12-29T08:40:46;8.30;99.90
12841;DHT22;6487;48.626;12.486;2023-12-29T08:43:17;8.40;99.90
12841;DHT22;6487;48.626;12.486;2023-12-29T08:45:51;8.40;99.90
12841;DHT22;6487;48.626;12.486;2023-12-29T08:48:20;8.50;99.90
12841;DHT22;6487;48.626;12.486;2023-12-29T08:50:49;8.60;99.90
12841;DHT22;6487;48.626;12.486;2023-12-29T08:53:21;8.60;99.90
12841;DHT22;6487;48.626;12.486;2023-12-29T08:55:50;8.60;99.90
12841;DHT22;6487;48.626;12.486;2023-12-29T08:58:18;8.70;99.90
12841;DHT22;6487;48.626;12.486;2023-12-29T09:00:47;8.70;99.90
12841;DHT22;6487;48.626;12.486;2023-12-29T09:03:16;8.80;99.90
12841;DHT22;6487;48.626;12.486;2023-12-29T09:05:44;8.80;99.90
12841;DHT22;6487;48.626;12.486;2023-12-29T09:08:12;8.90;99.90
12841;DHT22;6487;48.626;12.486;2023-12-29T09:10:42;9.00;99.90
12841;DHT22;6487;48.626;12.486;2023-12-29T09:13:11;9.10;99.90
12841;DHT22;6487;48.626;12.486;2023-12-29T09:15:39;9.10;99.90
12841;DHT22;6487;48.626;12.486;2023-12-29T09:18:08;9.10;99.90
12841;DHT22;6487;48.626;12.486;2023-12-29T09:20:37;9.30;99.90
12841;DHT22;6487;48.626;12.486;2023-12-29T09:23:06;9.30;99.90
12841;DHT22;6487;48.626;12.486;2023-12-29T09:25:35;9.20;99.90
12841;DHT22;6487;48.626;12.486;2023-12-29T09:28:05;9.30;99.90
12841;DHT22;6487;48.626;12.486;2023-12-29T09:30:34;9.30;99.90
12841;DHT22;6487;48.626;12.486;2023-12-29T09:33:02;9.40;99.90
12841;DHT22;6487;48.626;12.486;2023-12-29T09:35:32;9.40;99.90
12841;DHT22;6487;48.626;12.486;2023-12-29T09:38:03;9.60;99.90
12841;DHT22;6487;48.626;12.486;2023-12-29T09:40:32;9.60;99.90
12841;DHT22;6487;48.626;12.486;2023-12-29T09:43:05;9.70;99.90
12841;DHT22;6487;48.626;12.486;2023-12-29T09:45:33;9.90;99.90
12841;DHT22;6487;48.626;12.486;2023-12-29T09:48:07;10.20;99.90
12841;DHT22;6487;48.626;12.486;2023-12-29T09:50:37;10.40;99.90
12841;DHT22;6487;48.626;12.486;2023-12-29T09:53:06;10.70;99.90
12841;DHT22;6487;48.626;12.486;2023-12-29T09:55:39;10.80;99.90
12841;DHT22;6487;48.626;12.486;2023-12-29T09:58:12;11.10;99.90
12841;DHT22;6487;48.626;12.486;2023-12-29T10:00:42;11.30;99.90
12841;DHT22;6487;48.626;12.486;2023-12-29T10:03:11;11.40;99.90
12841;DHT22;6487;48.626;12.486;2023-12-29T10:05:39;11.80;99.90
12841;DHT22;6487;48.626;12.486;2023-12-29T10:08:10;11.90;99.90
12841;DHT22;6487;48.626;12.486;2023-12-29T10:10:39;12.00;99.90
12841;DHT22;6487;48.626;12.486;2023-12-29T10:13:12;12.20;99.90
12841;DHT22;6487;48.626;12.486;2023-12-29T10:15:47;12.40;99.90
12841;DHT22;6487;48.626;12.486;2023-12-29T10:18:22;12.60;99.90
12841;DHT22;6487;48.626;12.486;2023-12-29T10:21:11;12.90;99.90
12841;DHT22;6487;48.626;12.486;2023-12-29T10:23:52;13.10;99.90
12841;DHT22;6487;48.626;12.486;2023-12-29T10:26:24;13.10;99.90
12841;DHT22;6487;48.626;12.486;2023-12-29T10:28:56;13.40;99.90
12841;DHT22;6487;48.626;12.486;2023-12-29T10:31:25;13.50;99.90
12841;DHT22;6487;48.626;12.486;2023-12-29T10:34:17;13.60;99.90
12841;DHT22;6487;48.626;12.486;2023-12-29T10:36:47;13.70;99.90
12841;DHT22;6487;48.626;12.486;2023-12-29T10:39:18;13.80;99.90
12841;DHT22;6487;48.626;12.486;2023-12-29T10:41:47;13.90;99.90
12841;DHT22;6487;48.626;12.486;2023-12-29T10:44:18;14.00;99.90
12841;DHT22;6487;48.626;12.486;2023-12-29T10:46:46;13.70;99.90
12841;DHT22;6487;48.626;12.486;2023-12-29T10:49:15;13.90;99.90
12841;DHT22;6487;48.626;12.486;2023-12-29T10:51:46;14.10;99.90
12841;DHT22;6487;48.626;12.486;2023-12-29T10:54:19;14.10;99.90
12841;DHT22;6487;48.626;12.486;2023-12-29T10:57:01;14.10;99.90
12841;DHT22;6487;48.626;12.486;2023-12-29T10:59:31;13.90;99.90
12841;DHT22;6487;48.626;12.486;2023-12-29T11:02:01;14.00;99.90
12841;DHT22;6487;48.626;12.486;2023-12-29T11:04:33;13.80;99.90
12841;DHT22;6487;48.626;12.486;2023-12-29T11:07:02;13.80;99.90
12841;DHT22;6487;48.626;12.486;2023-12-29T11:09:32;13.80;99.90
12841;DHT22;6487;48.626;12.486;2023-12-29T11:12:02;13.80;99.90
12841;DHT22;6487;48.626;12.486;2023-12-29T11:14:33;13.70;99.90
12841;DHT22;6487;48.626;12.486;2023-12-29T11:17:03;13.30;99.90
12841;DHT22;6487;48.626;12.486;2023-12-29T11:19:33;13.10;99.90
12841;DHT22;6487;48.626;12.486;2023-12-29T11:22:03;13.00;99.90
12841;DHT22;6487;48.626;12.486;2023-12-29T11:24:32;13.10;99.90
12841;DHT22;6487;48.626;12.486;2023-12-29T11:27:10;13.20;99.90
12841;DHT22;6487;48.626;12.486;2023-12-29T11:29:42;12.90;99.90
12841;DHT22;6487;48.626;12.486;2023-12-29T11:32:16;12.90;99.90
12841;DHT22;6487;48.626;12.486;2023-12-29T11:34:53;12.80;99.90
12841;DHT22;6487;48.626;12.486;2023-12-29T11:37:37;12.90;99.90
12841;DHT22;6487;48.626;12.486;2023-12-29T11:40:28;12.90;99.90
12841;DHT22;6487;48.626;12.486;2023-12-29T11:43:02;13.00;99.90
12841;DHT22;6487;48.626;12.486;2023-12-29T11:45:35;13.00;99.90
12841;DHT22;6487;48.626;12.486;2023-12-29T11:48:06;12.90;99.90
12841;DHT22;6487;48.626;12.486;2023-12-29T11:50:36;12.90;99.90
12841;DHT22;6487;48.626;12.486;2023-12-29T11:53:07;12.90;99.90
12841;DHT22;6487;48.626;12.486;2023-12-29T11:55:38;12.90;99.90
12841;DHT22;6487;48.626;12.486;2023-12-29T11:58:24;12.80;99.90
12841;DHT22;6487;48.626;12.486;2023-12-29T12:00:58;12.90;99.90
12841;DHT22;6487;48.626;12.486;2023-12-29T12:03:28;12.90;99.90
12841;DHT22;6487;48.626;12.486;2023-12-29T12:05:59;12.80;99.90
12841;DHT22;6487;48.626;12.486;2023-12-29T12:08:32;12.80;99.90
12841;DHT22;6487;48.626;12.486;2023-12-29T12:14:50;12.70;99.90
12841;DHT22;6487;48.626;12.486;2023-12-29T12:17:31;12.60;99.90
12841;DHT22;6487;48.626;12.486;2023-12-29T12:20:03;12.80;99.90
12841;DHT22;6487;48.626;12.486;2023-12-29T12:22:35;12.70;99.90
12841;DHT22;6487;48.626;12.486;2023-12-29T12:25:06;12.70;99.90
12841;DHT22;6487;48.626;12.486;2023-12-29T12:27:37;12.70;99.90
12841;DHT22;6487;48.626;12.486;2023-12-29T12:30:07;12.70;99.90
12841;DHT22;6487;48.626;12.486;2023-12-29T12:32:39;12.70;99.90
12841;DHT22;6487;48.626;12.486;2023-12-29T12:35:16;12.70;99.90
12841;DHT22;6487;48.626;12.486;2023-12-29T12:37:46;12.60;99.90
12841;DHT22;6487;48.626;12.486;2023-12-29T12:40:27;12.60;99.90
12841;DHT22;6487;48.626;12.486;2023-12-29T12:42:56;12.70;99.90
12841;DHT22;6487;48.626;12.486;2023-12-29T12:45:26;12.70;99.90
12841;DHT22;6487;48.626;12.486;2023-12-29T12:48:02;12.80;99.90
12841;DHT22;6487;48.626;12.486;2023-12-29T12:50:34;12.90;99.90
12841;DHT22;6487;48.626;12.486;2023-12-29T12:53:02;12.80;99.90
12841;DHT22;6487;48.626;12.486;2023-12-29T12:55:36;12.90;99.90
12841;DHT22;6487;48.626;12.486;2023-12-29T12:58:05;12.80;99.90
12841;DHT22;6487;48.626;12.486;2023-12-29T13:00:34;12.80;99.90
12841;DHT22;6487;48.626;12.486;2023-12-29T13:03:05;12.80;99.90
12841;DHT22;6487;48.626;12.486;2023-12-29T13:05:35;12.80;99.90
12841;DHT22;6487;48.626;12.486;2023-12-29T13:08:06;12.80;99.90
12841;DHT22;6487;48.626;12.486;2023-12-29T13:10:40;12.80;99.90
12841;DHT22;6487;48.626;12.486;2023-12-29T13:13:09;12.70;99.90
12841;DHT22;6487;48.626;12.486;2023-12-29T13:15:46;12.70;99.90
12841;DHT22;6487;48.626;12.486;2023-12-29T13:18:16;12.70;99.90
12841;DHT22;6487;48.626;12.486;2023-12-29T13:20:46;12.60;99.90
12841;DHT22;6487;48.626;12.486;2023-12-29T13:23:15;12.60;99.90
12841;DHT22;6487;48.626;12.486;2023-12-29T13:25:44;12.60;99.90
12841;DHT22;6487;48.626;12.486;2023-12-29T13:28:15;12.60;99.90
12841;DHT22;6487;48.626;12.486;2023-12-29T13:30:43;12.60;99.90
12841;DHT22;6487;48.626;12.486;2023-12-29T13:33:18;12.60;99.90
12841;DHT22;6487;48.626;12.486;2023-12-29T13:35:56;12.70;99.90
12841;DHT22;6487;48.626;12.486;2023-12-29T13:38:36;12.60;99.90
12841;DHT22;6487;48.626;12.486;2023-12-29T13:41:12;12.50;99.90
12841;DHT22;6487;48.626;12.486;2023-12-29T13:43:43;12.50;99.90
12841;DHT22;6487;48.626;12.486;2023-12-29T13:46:15;12.60;99.90
12841;DHT22;6487;48.626;12.486;2023-12-29T13:48:46;12.50;99.90
12841;DHT22;6487;48.626;12.486;2023-12-29T13:51:23;12.50;99.90
12841;DHT22;6487;48.626;12.486;2023-12-29T13:53:58;12.50;99.90
12841;DHT22;6487;48.626;12.486;2023-12-29T13:56:27;12.40;99.90
12841;DHT22;6487;48.626;12.486;2023-12-29T13:58:56;12.40;99.90
12841;DHT22;6487;48.626;12.486;2023-12-29T14:01:35;12.40;99.90
12841;DHT22;6487;48.626;12.486;2023-12-29T14:04:07;12.50;99.90
12841;DHT22;6487;48.626;12.486;2023-12-29T14:06:42;12.50;99.90
12841;DHT22;6487;48.626;12.486;2023-12-29T14:09:18;12.40;99.90
12841;DHT22;6487;48.626;12.486;2023-12-29T14:11:47;12.30;99.90
12841;DHT22;6487;48.626;12.486;2023-12-29T14:14:22;12.30;99.90
12841;DHT22;6487;48.626;12.486;2023-12-29T14:16:52;12.30;99.90
12841;DHT22;6487;48.626;12.486;2023-12-29T14:19:22;12.20;99.90
12841;DHT22;6487;48.626;12.486;2023-12-29T14:21:53;12.10;99.90
12841;DHT22;6487;48.626;12.486;2023-12-29T14:24:22;12.20;99.90
12841;DHT22;6487;48.626;12.486;2023-12-29T14:26:55;12.10;99.90
12841;DHT22;6487;48.626;12.486;2023-12-29T14:29:25;12.10;99.90
12841;DHT22;6487;48.626;12.486;2023-12-29T14:31:54;12.10;99.90
12841;DHT22;6487;48.626;12.486;2023-12-29T14:34:25;12.00;99.90
12841;DHT22;6487;48.626;12.486;2023-12-29T14:36:53;12.00;99.90
12841;DHT22;6487;48.626;12.486;2023-12-29T14:39:22;12.00;99.90
12841;DHT22;6487;48.626;12.486;2023-12-29T14:41:51;11.90;99.90
12841;DHT22;6487;48.626;12.486;2023-12-29T14:44:19;11.90;99.90
12841;DHT22;6487;48.626;12.486;2023-12-29T14:46:48;11.90;99.90
12841;DHT22;6487;48.626;12.486;2023-12-29T14:49:16;11.80;99.90
12841;DHT22;6487;48.626;12.486;2023-12-29T14:51:46;11.80;99.90
12841;DHT22;6487;48.626;12.486;2023-12-29T14:54:15;11.70;99.90
12841;DHT22;6487;48.626;12.486;2023-12-29T14:56:43;11.70;99.90
12841;DHT22;6487;48.626;12.486;2023-12-29T14:59:12;11.70;99.90
12841;DHT22;6487;48.626;12.486;2023-12-29T15:01:40;11.60;99.90
12841;DHT22;6487;48.626;12.486;2023-12-29T15:04:09;11.60;99.90
12841;DHT22;6487;48.626;12.486;2023-12-29T15:06:39;11.60;99.90
12841;DHT22;6487;48.626;12.486;2023-12-29T15:09:10;11.60;99.90
12841;DHT22;6487;48.626;12.486;2023-12-29T15:11:40;11.60;99.90
12841;DHT22;6487;48.626;12.486;2023-12-29T15:14:09;11.50;99.90
12841;DHT22;6487;48.626;12.486;2023-12-29T15:16:37;11.50;99.90
12841;DHT22;6487;48.626;12.486;2023-12-29T15:19:06;11.50;99.90
12841;DHT22;6487;48.626;12.486;2023-12-29T15:21:35;11.40;99.90
12841;DHT22;6487;48.626;12.486;2023-12-29T15:24:04;11.40;99.90
12841;DHT22;6487;48.626;12.486;2023-12-29T15:26:35;11.30;99.90
12841;DHT22;6487;48.626;12.486;2023-12-29T15:29:03;11.30;99.90
12841;DHT22;6487;48.626;12.486;2023-12-29T15:31:33;11.30;99.90
12841;DHT22;6487;48.626;12.486;2023-12-29T15:34:02;11.30;99.90
12841;DHT22;6487;48.626;12.486;2023-12-29T15:36:31;11.30;99.90
12841;DHT22;6487;48.626;12.486;2023-12-29T15:38:59;11.20;99.90
12841;DHT22;6487;48.626;12.486;2023-12-29T15:41:28;11.20;99.90
12841;DHT22;6487;48.626;12.486;2023-12-29T15:43:58;11.00;99.90
12841;DHT22;6487;48.626;12.486;2023-12-29T15:46:26;11.00;99.90
12841;DHT22;6487;48.626;12.486;2023-12-29T15:48:55;11.00;99.90
12841;DHT22;6487;48.626;12.486;2023-12-29T15:51:25;10.90;99.90
12841;DHT22;6487;48.626;12.486;2023-12-29T15:53:53;10.80;99.90
12841;DHT22;6487;48.626;12.486;2023-12-29T15:56:22;10.80;99.90
12841;DHT22;6487;48.626;12.486;2023-12-29T15:58:51;10.70;99.90
12841;DHT22;6487;48.626;12.486;2023-12-29T16:01:24;10.70;99.90